Time;durP1;ratioP1;P1;durP2;ratioP2;P2;SDS_P1;SDS_P2;PMS_P1;PMS_P2;Temp;Humidity;BMP_temperature;BMP_pressure;BME280_temperature;BME280_humidity;BME280_pressure;Samples;Min_cycle;Max_cycle;Signal;HPM_P1;HPM_P2
2023/08/20 00:00:35;;;;;;;5.32;3.08;;;17.50;99.90;;;;;;5052028;28;20037;-72
2023/08/20 00:03:13;;;;;;;5.47;3.20;;;17.20;99.90;;;;;;5026403;28;20424;-72
2023/08/20 00:05:39;;;;;;;7.78;4.00;;;17.30;99.90;;;;;;5043804;28;20524;-71
2023/08/20 00:08:05;;;;;;;8.55;4.13;;;17.00;99.90;;;;;;5033898;28;20044;-71
2023/08/20 00:10:31;;;;;;;8.98;3.70;;;17.20;99.90;;;;;;5034348;28;20037;-72
2023/08/20 00:12:57;;;;;;;7.85;3.05;;;17.10;99.90;;;;;;5034468;28;20097;-71
2023/08/20 00:15:27;;;;;;;6.78;3.13;;;17.30;99.90;;;;;;5026972;28;20053;-71
2023/08/20 00:17:53;;;;;;;9.13;3.55;;;17.30;99.90;;;;;;5051901;28;20041;-72
2023/08/20 00:20:19;;;;;;;9.45;3.90;;;17.40;99.90;;;;;;5052255;28;20078;-71
2023/08/20 00:22:46;;;;;;;11.40;3.90;;;17.30;99.90;;;;;;5033863;28;20068;-71
2023/08/20 00:25:13;;;;;;;6.70;3.88;;;17.10;99.90;;;;;;5051629;28;20443;-72
2023/08/20 00:27:40;;;;;;;12.10;3.60;;;17.00;99.90;;;;;;5033489;28;20045;-71
2023/08/20 00:30:06;;;;;;;6.47;3.47;;;16.90;99.90;;;;;;5051316;28;20116;-72
2023/08/20 00:32:32;;;;;;;7.25;3.53;;;17.00;99.90;;;;;;5051407;28;20041;-71
2023/08/20 00:34:58;;;;;;;10.32;3.40;;;17.00;99.90;;;;;;5051587;28;20041;-72
2023/08/20 00:37:23;;;;;;;8.15;3.78;;;17.00;99.90;;;;;;5055231;28;20674;-71
2023/08/20 00:39:49;;;;;;;6.25;3.28;;;17.00;99.90;;;;;;5055389;28;20048;-71
2023/08/20 00:42:14;;;;;;;8.30;3.30;;;16.80;99.90;;;;;;5055400;28;20037;-71
2023/08/20 00:44:41;;;;;;;8.10;4.05;;;16.90;99.90;;;;;;5055023;28;20044;-72
2023/08/20 00:47:08;;;;;;;9.80;4.00;;;16.80;99.90;;;;;;5055080;28;20045;-71
2023/08/20 00:49:34;;;;;;;6.38;3.88;;;16.90;99.90;;;;;;5055018;28;20457;-71
2023/08/20 00:52:00;;;;;;;7.75;3.35;;;16.70;99.90;;;;;;5054976;28;20059;-71
2023/08/20 00:54:27;;;;;;;6.95;3.50;;;16.50;99.90;;;;;;5055230;28;20040;-71
2023/08/20 00:56:53;;;;;;;11.38;3.95;;;16.50;99.90;;;;;;5054884;28;20420;-71
2023/08/20 00:59:19;;;;;;;8.88;3.67;;;16.50;99.90;;;;;;5054900;28;20037;-71
2023/08/20 01:01:45;;;;;;;6.00;3.45;;;16.60;99.90;;;;;;5052443;28;20123;-71
2023/08/20 01:04:11;;;;;;;7.63;3.92;;;16.50;99.90;;;;;;5046208;28;20431;-71
2023/08/20 01:06:46;;;;;;;6.35;3.35;;;16.80;99.90;;;;;;5052590;28;20052;-71
2023/08/20 01:09:38;;;;;;;6.40;4.25;;;16.60;99.90;;;;;;5030948;28;20041;-71
2023/08/20 01:12:04;;;;;;;8.48;3.80;;;16.40;99.90;;;;;;5054835;28;20044;-71
2023/08/20 01:14:30;;;;;;;5.03;3.30;;;16.30;99.90;;;;;;5054468;28;20508;-71
2023/08/20 01:16:55;;;;;;;6.32;3.80;;;16.40;99.90;;;;;;5036690;28;20044;-71
2023/08/20 01:19:22;;;;;;;8.95;3.88;;;16.40;99.90;;;;;;5054617;28;20408;-71
2023/08/20 01:22:08;;;;;;;8.18;4.07;;;16.60;99.90;;;;;;5054569;28;20516;-71
2023/08/20 01:25:06;;;;;;;7.68;3.80;;;16.40;99.90;;;;;;5054429;28;20059;-71
2023/08/20 01:28:02;;;;;;;6.93;3.88;;;16.60;99.90;;;;;;5036508;28;20049;-71
2023/08/20 01:30:29;;;;;;;9.30;4.50;;;16.50;99.90;;;;;;5054434;28;20124;-71
2023/08/20 01:32:56;;;;;;;9.13;4.03;;;16.30;99.90;;;;;;5054364;28;20473;-71
2023/08/20 01:35:26;;;;;;;7.32;4.68;;;16.20;99.90;;;;;;5054271;28;20091;-71
2023/08/20 01:37:52;;;;;;;8.25;4.00;;;16.30;99.90;;;;;;5053927;28;20083;-71
2023/08/20 01:40:17;;;;;;;8.27;3.78;;;16.60;99.90;;;;;;5054350;28;20455;-71
2023/08/20 01:42:43;;;;;;;10.48;4.82;;;16.20;99.90;;;;;;5053992;28;20040;-71
2023/08/20 01:45:09;;;;;;;10.90;4.38;;;16.40;99.90;;;;;;5048688;28;20055;-71
2023/08/20 01:47:34;;;;;;;10.10;4.07;;;16.40;99.90;;;;;;5050604;28;20116;-71
2023/08/20 01:50:00;;;;;;;10.30;4.80;;;16.40;99.90;;;;;;5053880;28;20110;-71
2023/08/20 01:52:26;;;;;;;10.77;4.53;;;16.20;99.90;;;;;;5053792;28;20516;-71
2023/08/20 01:54:53;;;;;;;8.27;3.88;;;16.30;99.90;;;;;;5053677;28;20036;-71
2023/08/20 01:57:18;;;;;;;10.30;4.10;;;16.30;99.90;;;;;;5045485;28;20040;-72
2023/08/20 01:59:44;;;;;;;9.27;4.60;;;16.40;99.90;;;;;;5053718;28;20473;-72
2023/08/20 02:02:10;;;;;;;6.25;4.05;;;16.20;99.90;;;;;;5053789;28;20469;-71
2023/08/20 02:04:35;;;;;;;7.13;4.63;;;16.40;99.90;;;;;;5053677;28;20045;-71
2023/08/20 02:07:01;;;;;;;8.18;4.35;;;16.30;99.90;;;;;;5053499;28;20120;-71
2023/08/20 02:09:26;;;;;;;6.32;4.00;;;16.60;99.90;;;;;;5053435;28;20059;-72
2023/08/20 02:11:52;;;;;;;8.35;4.70;;;16.20;99.90;;;;;;5053724;28;20037;-72
2023/08/20 02:14:18;;;;;;;7.22;4.18;;;16.10;99.90;;;;;;5035746;28;20041;-71
2023/08/20 02:16:44;;;;;;;7.30;4.28;;;16.50;99.90;;;;;;5053454;28;20382;-72
2023/08/20 02:19:10;;;;;;;10.65;4.68;;;16.30;99.90;;;;;;5035442;28;20127;-71
2023/08/20 02:21:36;;;;;;;10.43;4.35;;;16.50;99.90;;;;;;5053260;28;20393;-71
2023/08/20 02:24:01;;;;;;;9.25;5.20;;;16.10;99.90;;;;;;5053507;28;20097;-71
2023/08/20 02:26:27;;;;;;;8.88;4.63;;;16.00;99.90;;;;;;5053431;28;20538;-71
2023/08/20 02:28:52;;;;;;;8.80;4.90;;;16.20;99.90;;;;;;5053095;28;20044;-72
2023/08/20 02:31:18;;;;;;;6.43;4.10;;;16.40;99.90;;;;;;5053192;28;20049;-71
2023/08/20 02:33:43;;;;;;;8.75;4.47;;;16.30;99.90;;;;;;5053057;28;20037;-71
2023/08/20 02:36:09;;;;;;;6.88;4.47;;;16.30;99.90;;;;;;5053066;28;20460;-71
2023/08/20 02:38:35;;;;;;;8.93;4.85;;;15.90;99.90;;;;;;5053046;28;20052;-71
2023/08/20 02:41:02;;;;;;;8.10;4.70;;;16.10;99.90;;;;;;5053107;28;20044;-72
2023/08/20 02:43:28;;;;;;;13.23;5.00;;;15.90;99.90;;;;;;5052905;28;20053;-72
2023/08/20 02:45:54;;;;;;;8.35;4.63;;;16.20;99.90;;;;;;5035345;28;20077;-72
2023/08/20 02:48:20;;;;;;;9.95;5.20;;;16.00;99.90;;;;;;5052638;28;20069;-72
2023/08/20 02:50:45;;;;;;;8.18;5.07;;;15.90;99.90;;;;;;5052812;28;20053;-71
2023/08/20 02:53:11;;;;;;;9.18;5.00;;;16.30;99.90;;;;;;5052922;28;20036;-72
2023/08/20 02:55:37;;;;;;;8.05;5.45;;;16.10;99.90;;;;;;5052840;28;20532;-72
2023/08/20 02:58:07;;;;;;;10.02;5.65;;;16.30;99.90;;;;;;5051627;28;20106;-72
2023/08/20 03:00:33;;;;;;;8.23;5.45;;;15.90;99.90;;;;;;5052692;28;20408;-71
2023/08/20 03:02:58;;;;;;;10.20;6.45;;;16.20;99.90;;;;;;5052461;28;20095;-72
2023/08/20 03:05:24;;;;;;;13.38;6.53;;;16.10;99.90;;;;;;5052446;28;20120;-72
2023/08/20 03:07:50;;;;;;;9.38;6.57;;;16.00;99.90;;;;;;5052292;28;20551;-71
2023/08/20 03:10:16;;;;;;;10.02;6.43;;;15.80;99.90;;;;;;5052611;28;20041;-72
2023/08/20 03:12:41;;;;;;;12.73;6.60;;;16.00;99.90;;;;;;5052296;28;20068;-71
2023/08/20 03:15:07;;;;;;;10.95;6.20;;;16.20;99.90;;;;;;5052464;28;20048;-71
2023/08/20 03:17:33;;;;;;;13.00;6.65;;;15.70;99.90;;;;;;5052078;28;20496;-72
2023/08/20 03:20:00;;;;;;;10.73;6.65;;;16.10;99.90;;;;;;5052043;28;20167;-72
2023/08/20 03:22:27;;;;;;;12.40;7.47;;;15.80;99.90;;;;;;5052303;28;20029;-72
2023/08/20 03:24:53;;;;;;;8.23;5.93;;;15.80;99.90;;;;;;5052314;28;20045;-72
2023/08/20 03:27:19;;;;;;;9.23;6.25;;;15.80;99.90;;;;;;5051944;28;20378;-72
2023/08/20 03:29:46;;;;;;;8.40;6.93;;;15.60;99.90;;;;;;5051969;28;20122;-71
2023/08/20 03:32:12;;;;;;;15.73;7.40;;;15.80;99.90;;;;;;5052153;28;20056;-71
2023/08/20 03:34:37;;;;;;;9.95;7.10;;;15.90;99.90;;;;;;5051913;28;20045;-71
2023/08/20 03:37:03;;;;;;;13.20;7.72;;;15.90;99.90;;;;;;5034321;28;20049;-72
2023/08/20 03:39:30;;;;;;;12.70;8.10;;;15.70;99.90;;;;;;5051881;28;20048;-71
2023/08/20 03:41:56;;;;;;;10.15;6.85;;;15.70;99.90;;;;;;5051889;28;20036;-71
2023/08/20 03:44:22;;;;;;;12.02;7.50;;;15.70;99.90;;;;;;5033856;28;20036;-71
2023/08/20 03:46:48;;;;;;;14.88;7.35;;;15.60;99.90;;;;;;5017447;28;20041;-71
2023/08/20 03:49:13;;;;;;;12.63;6.65;;;15.50;99.90;;;;;;5033727;28;20098;-72
2023/08/20 03:51:39;;;;;;;8.48;6.45;;;15.60;99.90;;;;;;5051941;28;20051;-71
2023/08/20 03:54:04;;;;;;;18.02;6.88;;;15.50;99.90;;;;;;5033821;28;20044;-71
2023/08/20 03:56:30;;;;;;;14.55;6.68;;;15.50;99.90;;;;;;5051808;28;20076;-72
2023/08/20 03:58:56;;;;;;;8.52;6.35;;;15.60;99.90;;;;;;5033640;28;20076;-71
2023/08/20 04:01:21;;;;;;;12.18;6.40;;;15.70;99.90;;;;;;5033866;28;20037;-71
2023/08/20 04:03:48;;;;;;;13.10;7.47;;;15.60;99.90;;;;;;5051464;28;20095;-71
2023/08/20 04:06:14;;;;;;;10.73;6.45;;;15.70;99.90;;;;;;5051541;28;20090;-71
2023/08/20 04:08:39;;;;;;;10.90;6.68;;;15.50;99.90;;;;;;5033668;28;20545;-71
2023/08/20 04:11:05;;;;;;;12.50;8.07;;;15.40;99.90;;;;;;5033519;28;20043;-71
2023/08/20 04:13:31;;;;;;;11.43;7.22;;;15.80;99.90;;;;;;5033603;28;20037;-71
2023/08/20 04:15:56;;;;;;;12.85;7.32;;;15.80;99.90;;;;;;5051339;28;20159;-72
2023/08/20 04:18:22;;;;;;;12.75;6.60;;;15.50;99.90;;;;;;5050939;28;20048;-72
2023/08/20 04:20:50;;;;;;;10.32;6.70;;;15.40;99.90;;;;;;5051557;28;20029;-71
2023/08/20 04:23:16;;;;;;;10.02;6.97;;;15.40;99.90;;;;;;5051314;28;20366;-72
2023/08/20 04:25:41;;;;;;;11.60;6.57;;;15.40;99.90;;;;;;5051420;28;20048;-71
2023/08/20 04:28:07;;;;;;;11.23;6.80;;;15.40;99.90;;;;;;5051207;28;20073;-71
2023/08/20 04:30:36;;;;;;;10.68;6.70;;;15.70;99.90;;;;;;5033521;28;20125;-71
2023/08/20 04:33:01;;;;;;;13.73;7.40;;;15.50;99.90;;;;;;5051468;28;20060;-71
2023/08/20 04:35:27;;;;;;;9.48;6.68;;;15.70;99.90;;;;;;5033421;28;20045;-72
2023/08/20 04:37:52;;;;;;;10.38;7.22;;;15.80;99.90;;;;;;5033230;28;20124;-72
2023/08/20 04:40:18;;;;;;;10.93;6.45;;;15.80;99.90;;;;;;5051331;28;20037;-72
2023/08/20 04:42:44;;;;;;;11.32;6.88;;;15.60;99.90;;;;;;5033193;28;20051;-72
2023/08/20 04:45:10;;;;;;;11.70;6.55;;;15.80;99.90;;;;;;5074014;22;20212;-71
2023/08/20 04:47:36;;;;;;;9.25;7.00;;;15.50;99.90;;;;;;5052327;28;20048;-71
2023/08/20 04:50:03;;;;;;;8.60;5.57;;;15.70;99.90;;;;;;5052820;28;20525;-71
2023/08/20 04:52:28;;;;;;;6.20;5.00;;;15.60;99.90;;;;;;5053228;28;20086;-71
2023/08/20 04:54:54;;;;;;;8.52;5.90;;;15.40;99.90;;;;;;5035030;28;20040;-71
2023/08/20 04:57:19;;;;;;;9.27;5.50;;;15.40;99.90;;;;;;5052233;28;20122;-71
2023/08/20 04:59:45;;;;;;;7.70;4.93;;;15.20;99.90;;;;;;5011199;28;20044;-71
2023/08/20 05:02:12;;;;;;;5.43;4.82;;;15.60;99.90;;;;;;5046859;28;20176;-70
2023/08/20 05:04:38;;;;;;;7.68;5.45;;;15.40;99.90;;;;;;5049402;28;20044;-72
2023/08/20 05:07:04;;;;;;;7.72;5.25;;;15.60;99.90;;;;;;5052224;28;20514;-71
2023/08/20 05:09:29;;;;;;;8.05;6.43;;;15.70;99.90;;;;;;5033631;28;20041;-70
2023/08/20 05:11:55;;;;;;;9.77;6.13;;;15.70;99.90;;;;;;5033602;28;20463;-70
2023/08/20 05:14:20;;;;;;;8.80;5.70;;;16.00;99.90;;;;;;5051904;28;20080;-70
2023/08/20 05:16:46;;;;;;;8.55;6.22;;;16.20;99.90;;;;;;5033750;28;20056;-70
2023/08/20 05:19:11;;;;;;;7.72;5.45;;;15.90;99.90;;;;;;5030805;28;20045;-70
2023/08/20 05:21:37;;;;;;;7.97;6.75;;;16.10;99.90;;;;;;5018571;28;20068;-70
2023/08/20 05:24:03;;;;;;;9.60;6.60;;;16.50;99.90;;;;;;5055842;28;20082;-71
2023/08/20 05:26:29;;;;;;;11.93;6.63;;;16.40;99.90;;;;;;5037467;28;20041;-71
2023/08/20 05:28:54;;;;;;;10.18;6.07;;;16.80;99.90;;;;;;5037438;28;20040;-70
2023/08/20 05:31:20;;;;;;;8.25;5.65;;;16.90;99.90;;;;;;5037843;28;20132;-71
2023/08/20 05:33:46;;;;;;;8.43;5.80;;;16.90;99.90;;;;;;5037949;28;20048;-71
2023/08/20 05:36:11;;;;;;;9.27;6.03;;;17.30;99.90;;;;;;5038069;28;20045;-71
2023/08/20 05:38:37;;;;;;;8.98;6.35;;;17.30;99.90;;;;;;5036978;28;20382;-71
2023/08/20 05:41:03;;;;;;;10.18;6.40;;;17.60;99.90;;;;;;5037453;28;20053;-71
2023/08/20 05:43:28;;;;;;;8.38;5.90;;;17.60;99.90;;;;;;5037100;28;20044;-71
2023/08/20 05:45:54;;;;;;;9.80;6.53;;;18.10;99.90;;;;;;5037627;28;20041;-71
2023/08/20 05:48:19;;;;;;;10.35;5.80;;;18.10;99.90;;;;;;5054961;28;20467;-71
2023/08/20 05:50:45;;;;;;;8.90;6.13;;;18.50;99.90;;;;;;5037518;28;20037;-71
2023/08/20 05:53:11;;;;;;;12.20;6.47;;;18.80;99.90;;;;;;5037063;28;20598;-71
2023/08/20 05:55:37;;;;;;;12.30;6.25;;;19.00;99.90;;;;;;5037381;28;20041;-71
2023/08/20 05:58:03;;;;;;;10.75;6.20;;;19.20;99.90;;;;;;5037056;28;20052;-71
2023/08/20 06:00:32;;;;;;;13.18;6.32;;;19.20;99.90;;;;;;5056250;28;20052;-71
2023/08/20 06:02:57;;;;;;;10.32;6.70;;;19.40;99.90;;;;;;5038237;28;20037;-71
2023/08/20 06:05:23;;;;;;;12.60;6.13;;;19.50;99.90;;;;;;5055980;28;20037;-71
2023/08/20 06:07:48;;;;;;;12.23;6.18;;;19.60;99.90;;;;;;5055446;28;20128;-71
2023/08/20 06:10:15;;;;;;;14.48;7.45;;;20.00;99.90;;;;;;5055877;28;20041;-71
2023/08/20 06:12:40;;;;;;;12.23;5.70;;;20.10;99.90;;;;;;5037412;28;20041;-71
2023/08/20 06:15:06;;;;;;;10.38;5.80;;;20.30;99.90;;;;;;5055442;28;20049;-71
2023/08/20 06:17:32;;;;;;;11.52;5.75;;;20.50;99.90;;;;;;5020185;28;20037;-71
2023/08/20 06:19:57;;;;;;;10.18;5.35;;;20.60;99.90;;;;;;5037722;28;20033;-71
2023/08/20 06:22:23;;;;;;;9.88;6.20;;;21.10;99.90;;;;;;5055572;28;20599;-71
2023/08/20 06:24:48;;;;;;;8.02;4.93;;;21.00;99.90;;;;;;5055144;28;20119;-71
2023/08/20 06:27:14;;;;;;;8.55;4.80;;;21.40;99.90;;;;;;5035966;28;20037;-71
2023/08/20 06:29:40;;;;;;;11.27;4.72;;;21.50;99.90;;;;;;5037129;28;20122;-71
2023/08/20 06:32:05;;;;;;;9.82;4.45;;;21.60;99.90;;;;;;5055331;28;20076;-71
2023/08/20 06:34:31;;;;;;;8.63;4.30;;;21.70;99.90;;;;;;5055315;28;20048;-71
2023/08/20 06:36:56;;;;;;;7.40;4.40;;;21.80;99.90;;;;;;5055341;28;20055;-71
2023/08/20 06:39:22;;;;;;;8.27;4.22;;;22.20;99.90;;;;;;5037122;28;20123;-71
2023/08/20 06:41:47;;;;;;;6.18;3.63;;;22.20;99.90;;;;;;5037446;28;20092;-71
2023/08/20 06:44:13;;;;;;;9.25;4.20;;;22.60;99.90;;;;;;5055002;28;20123;-71
2023/08/20 06:46:40;;;;;;;9.32;4.13;;;22.50;99.90;;;;;;5053744;28;20112;-70
2023/08/20 06:49:05;;;;;;;11.00;5.15;;;22.60;99.90;;;;;;5053737;28;20043;-71
2023/08/20 06:51:31;;;;;;;12.15;5.32;;;22.50;99.90;;;;;;5054495;28;20124;-71
2023/08/20 06:53:56;;;;;;;8.35;4.35;;;22.50;99.90;;;;;;5036789;28;20041;-71
2023/08/20 06:56:22;;;;;;;8.40;4.10;;;22.40;99.90;;;;;;5054679;28;20416;-72
2023/08/20 06:58:48;;;;;;;13.52;4.20;;;22.50;99.90;;;;;;5035691;28;20040;-71
2023/08/20 07:01:13;;;;;;;8.43;4.40;;;22.70;99.90;;;;;;5050976;28;20045;-71
2023/08/20 07:03:40;;;;;;;7.97;4.45;;;22.80;99.90;;;;;;5046371;28;20076;-71
2023/08/20 07:06:06;;;;;;;8.38;3.72;;;23.00;99.90;;;;;;5054248;28;20043;-71
2023/08/20 07:08:32;;;;;;;8.88;4.25;;;23.10;99.90;;;;;;5032620;28;20045;-72
2023/08/20 07:10:58;;;;;;;12.60;4.15;;;22.90;99.90;;;;;;5046170;28;20037;-71
2023/08/20 07:13:24;;;;;;;9.25;3.78;;;23.00;99.90;;;;;;5057427;28;20415;-71
2023/08/20 07:15:50;;;;;;;7.38;3.55;;;23.30;99.90;;;;;;5061067;28;20469;-71
2023/08/20 07:18:15;;;;;;;9.25;3.30;;;23.40;99.90;;;;;;5054572;28;20114;-71
2023/08/20 07:20:45;;;;;;;13.07;4.07;;;23.20;99.90;;;;;;5034600;28;20032;-71
2023/08/20 07:23:11;;;;;;;6.80;3.55;;;23.40;99.90;;;;;;5045955;28;20540;-71
2023/08/20 07:25:38;;;;;;;9.23;3.58;;;23.20;99.90;;;;;;5036964;28;20432;-72
2023/08/20 07:28:05;;;;;;;6.00;3.03;;;23.40;99.90;;;;;;5036331;28;20041;-71
2023/08/20 07:30:30;;;;;;;7.85;3.45;;;23.60;99.90;;;;;;5051701;28;20090;-71
2023/08/20 07:32:56;;;;;;;14.07;3.42;;;23.90;99.90;;;;;;5054192;28;20041;-72
2023/08/20 07:35:22;;;;;;;9.90;3.28;;;23.90;99.90;;;;;;5045999;28;20076;-71
2023/08/20 07:37:47;;;;;;;8.45;2.60;;;24.20;99.90;;;;;;5057010;28;20115;-72
2023/08/20 07:40:13;;;;;;;7.45;3.20;;;24.30;99.90;;;;;;5051428;28;20038;-72
2023/08/20 07:42:40;;;;;;;11.23;2.80;;;24.40;99.90;;;;;;5051751;28;20448;-74
2023/08/20 07:45:07;;;;;;;14.05;3.53;;;24.30;99.90;;;;;;5030152;28;20080;-71
2023/08/20 07:47:33;;;;;;;8.48;3.08;;;24.20;99.90;;;;;;5024509;28;20047;-72
2023/08/20 07:49:59;;;;;;;9.93;3.00;;;24.50;99.90;;;;;;5017797;28;20033;-72
2023/08/20 07:52:25;;;;;;;8.20;2.65;;;24.60;99.90;;;;;;5045849;28;20055;-71
2023/08/20 07:54:50;;;;;;;7.75;2.95;;;24.60;99.90;;;;;;5033737;28;20120;-72
2023/08/20 07:57:16;;;;;;;8.73;2.25;;;24.80;99.90;;;;;;5050059;28;20099;-72
2023/08/20 07:59:42;;;;;;;9.73;2.92;;;24.80;99.90;;;;;;5045395;28;20040;-72
2023/08/20 08:02:07;;;;;;;6.38;2.63;;;24.80;99.90;;;;;;5048529;28;20443;-73
2023/08/20 08:04:34;;;;;;;7.05;2.10;;;24.80;99.90;;;;;;5048497;28;20037;-71
2023/08/20 08:06:59;;;;;;;7.85;2.35;;;24.80;99.90;;;;;;5044417;28;20497;-71
2023/08/20 08:09:30;;;;;;;7.57;2.20;;;24.70;99.90;;;;;;5029925;28;20035;-71
2023/08/20 08:11:56;;;;;;;7.20;2.45;;;24.90;99.90;;;;;;5032418;28;20091;-71
2023/08/20 08:14:22;;;;;;;9.15;2.70;;;25.00;99.90;;;;;;5044682;28;20500;-71
2023/08/20 08:16:48;;;;;;;9.10;3.28;;;25.20;99.90;;;;;;5051392;28;20040;-71
2023/08/20 08:19:14;;;;;;;15.88;2.92;;;25.20;99.90;;;;;;5050763;28;20500;-71
2023/08/20 08:21:39;;;;;;;5.22;2.25;;;25.20;99.90;;;;;;5046659;28;20048;-71
2023/08/20 08:24:05;;;;;;;10.20;2.28;;;25.40;99.90;;;;;;5032440;28;20183;-71
2023/08/20 08:26:33;;;;;;;9.10;2.33;;;25.40;99.90;;;;;;5049212;28;20611;-72
2023/08/20 08:28:58;;;;;;;6.82;1.98;;;25.60;99.90;;;;;;5046290;28;20086;-72
2023/08/20 08:31:24;;;;;;;11.07;2.80;;;25.60;99.90;;;;;;5032823;28;20509;-72
2023/08/20 08:33:50;;;;;;;8.93;2.25;;;25.70;99.90;;;;;;5026272;28;20175;-72
2023/08/20 08:36:16;;;;;;;11.98;2.78;;;25.60;99.90;;;;;;5032300;28;20462;-72
2023/08/20 08:38:45;;;;;;;6.43;1.45;;;25.80;99.90;;;;;;5049028;28;20064;-73
2023/08/20 08:41:13;;;;;;;8.95;1.80;;;26.10;99.90;;;;;;5034130;28;20053;-71
2023/08/20 08:43:39;;;;;;;7.95;2.22;;;26.00;99.90;;;;;;5050899;28;20072;-72
2023/08/20 08:46:13;;;;;;;7.20;2.20;;;25.90;99.90;;;;;;5034089;28;20036;-71
2023/08/20 08:48:42;;;;;;;6.18;1.83;;;26.10;99.90;;;;;;5032114;28;20116;-72
2023/08/20 08:51:08;;;;;;;6.13;1.95;;;26.10;99.90;;;;;;5053066;28;20416;-74
2023/08/20 08:53:34;;;;;;;5.22;1.58;;;26.10;99.90;;;;;;5055176;28;20069;-71
2023/08/20 08:56:00;;;;;;;6.05;1.80;;;25.90;99.90;;;;;;5051158;28;20317;-72
2023/08/20 08:58:26;;;;;;;5.63;1.80;;;25.90;99.90;;;;;;5057563;28;20029;-72
2023/08/20 09:00:52;;;;;;;5.43;1.45;;;26.00;99.90;;;;;;5055451;28;20123;-72
2023/08/20 09:03:18;;;;;;;6.70;1.50;;;26.00;99.90;;;;;;5053762;28;20055;-72
2023/08/20 09:06:02;;;;;;;5.00;2.13;;;26.20;99.90;;;;;;5052724;28;20048;-71
2023/08/20 09:08:30;;;;;;;6.45;1.83;;;26.10;99.90;;;;;;5046826;28;20040;-72
2023/08/20 09:10:56;;;;;;;4.22;1.27;;;26.00;99.90;;;;;;5054727;28;20068;-72
2023/08/20 09:13:36;;;;;;;4.65;1.52;;;26.20;99.90;;;;;;5037121;28;20448;-72
2023/08/20 09:16:10;;;;;;;5.88;1.60;;;26.20;99.90;;;;;;5031840;28;20037;-73
2023/08/20 09:18:40;;;;;;;4.60;1.70;;;26.00;99.90;;;;;;5036272;28;20046;-72
2023/08/20 09:21:10;;;;;;;7.47;1.33;;;26.00;99.90;;;;;;5036715;28;20386;-73
2023/08/20 09:23:36;;;;;;;5.30;1.55;;;26.00;99.90;;;;;;5048843;28;20033;-73
2023/08/20 09:26:03;;;;;;;7.43;1.63;;;25.80;99.90;;;;;;5022515;28;20380;-73
2023/08/20 09:28:29;;;;;;;6.07;1.55;;;26.10;99.90;;;;;;5066174;28;20056;-72
2023/08/20 09:30:56;;;;;;;6.80;1.70;;;26.20;99.90;;;;;;5037004;28;20080;-72
2023/08/20 09:33:22;;;;;;;6.10;1.70;;;26.20;99.90;;;;;;5038581;28;20105;-73
2023/08/20 09:35:51;;;;;;;5.55;1.70;;;26.10;99.90;;;;;;5038923;28;20634;-72
2023/08/20 09:38:22;;;;;;;8.38;1.42;;;26.10;99.90;;;;;;5039114;28;20048;-71
2023/08/20 09:40:52;;;;;;;3.35;1.25;;;25.90;99.90;;;;;;5033318;28;20056;-72
2023/08/20 09:43:18;;;;;;;3.92;1.50;;;25.80;99.90;;;;;;5049438;28;20052;-75
2023/08/20 09:45:46;;;;;;;5.18;1.70;;;25.70;99.90;;;;;;5018633;28;20037;-74
2023/08/20 09:48:17;;;;;;;6.10;0.98;;;25.80;99.90;;;;;;5053375;28;20381;-73
2023/08/20 09:50:46;;;;;;;7.07;1.60;;;25.70;99.90;;;;;;5046042;28;20527;-72
2023/08/20 09:53:43;;;;;;;4.53;1.20;;;25.50;99.90;;;;;;5053875;28;20049;-72
2023/08/20 09:56:28;;;;;;;6.55;1.30;;;25.50;99.90;;;;;;5043838;28;20115;-73
2023/08/20 09:58:54;;;;;;;5.22;1.40;;;25.40;99.90;;;;;;5046622;28;20056;-72
2023/08/20 10:01:20;;;;;;;4.45;1.10;;;25.40;99.90;;;;;;5053335;28;20060;-72
2023/08/20 10:03:45;;;;;;;4.50;1.70;;;25.40;99.90;;;;;;5044361;28;20041;-72
2023/08/20 10:06:11;;;;;;;5.32;1.48;;;25.50;99.90;;;;;;5049630;28;20037;-73
2023/08/20 10:08:38;;;;;;;5.65;1.30;;;25.40;99.90;;;;;;5035624;28;20048;-72
2023/08/20 10:11:03;;;;;;;6.90;1.67;;;25.50;99.90;;;;;;5053402;28;20037;-71
2023/08/20 10:13:29;;;;;;;6.53;1.60;;;25.50;99.90;;;;;;5037245;28;20029;-72
2023/08/20 10:15:56;;;;;;;4.15;1.38;;;25.20;99.90;;;;;;5017024;28;20072;-72
2023/08/20 10:18:22;;;;;;;7.72;1.95;;;25.20;99.90;;;;;;5048755;28;20045;-72
2023/08/20 10:20:50;;;;;;;4.45;1.40;;;25.30;99.90;;;;;;5033904;28;20048;-72
2023/08/20 10:23:20;;;;;;;3.85;1.45;;;25.20;99.90;;;;;;5032669;28;20041;-72
2023/08/20 10:25:46;;;;;;;4.72;1.50;;;25.00;99.90;;;;;;5037638;28;20048;-72
2023/08/20 10:28:28;;;;;;;5.53;1.45;;;25.10;99.90;;;;;;5039728;28;20043;-71
2023/08/20 10:31:11;;;;;;;5.05;1.38;;;24.90;99.90;;;;;;5048261;28;20500;-72
2023/08/20 10:33:48;;;;;;;5.80;1.73;;;24.90;99.90;;;;;;5028270;28;20033;-72
2023/08/20 10:36:17;;;;;;;6.25;1.33;;;24.70;99.90;;;;;;5035430;28;20421;-72
2023/08/20 10:38:45;;;;;;;4.78;1.55;;;24.80;99.90;;;;;;5052334;28;20033;-72
2023/08/20 10:41:10;;;;;;;6.35;1.58;;;24.80;99.90;;;;;;5034370;28;20157;-71
2023/08/20 10:43:48;;;;;;;6.60;1.30;;;24.80;99.90;;;;;;5074403;22;20139;-73
2023/08/20 10:46:17;;;;;;;6.60;1.67;;;24.90;99.90;;;;;;5042428;28;20041;-74
2023/08/20 10:48:53;;;;;;;5.13;1.35;;;25.00;99.90;;;;;;5068071;28;20033;-73
2023/08/20 10:51:40;;;;;;;3.47;1.23;;;25.00;99.90;;;;;;5063449;28;20044;-73
2023/08/20 10:54:10;;;;;;;4.35;1.70;;;24.90;99.90;;;;;;5050835;28;20048;-73
2023/08/20 10:56:46;;;;;;;5.97;1.52;;;24.90;99.90;;;;;;5069612;28;20044;-73
2023/08/20 10:59:29;;;;;;;4.38;1.20;;;24.90;99.90;;;;;;5061713;28;20033;-73
2023/08/20 11:01:56;;;;;;;3.38;1.60;;;25.00;99.90;;;;;;5069691;28;20481;-73
2023/08/20 11:04:26;;;;;;;8.48;1.90;;;24.90;99.90;;;;;;5066175;28;20493;-73
2023/08/20 11:07:01;;;;;;;3.65;1.45;;;24.90;99.90;;;;;;5059477;28;20052;-73
2023/08/20 11:09:29;;;;;;;9.45;2.08;;;24.90;99.90;;;;;;5072291;28;20033;-73
2023/08/20 11:11:55;;;;;;;5.15;1.95;;;24.90;99.90;;;;;;5063933;28;20044;-72
2023/08/20 11:14:22;;;;;;;4.50;1.65;;;24.90;99.90;;;;;;5072317;28;20043;-72
2023/08/20 11:16:48;;;;;;;8.00;1.55;;;24.80;99.90;;;;;;5072210;28;20115;-72
2023/08/20 11:19:18;;;;;;;6.97;1.55;;;24.70;99.90;;;;;;5071697;28;20105;-73
2023/08/20 11:21:44;;;;;;;5.55;1.30;;;24.70;99.90;;;;;;5072413;28;20046;-72
2023/08/20 11:24:10;;;;;;;3.83;1.08;;;24.70;99.90;;;;;;5072342;28;20036;-72
2023/08/20 11:26:38;;;;;;;5.10;1.20;;;24.70;99.90;;;;;;5072270;28;20051;-72
2023/08/20 11:29:20;;;;;;;4.47;1.05;;;24.70;99.90;;;;;;5068524;28;20083;-72
2023/08/20 11:31:46;;;;;;;4.87;1.10;;;24.60;99.90;;;;;;5069444;28;20111;-72
2023/08/20 11:34:12;;;;;;;4.85;1.42;;;24.70;99.90;;;;;;5072263;28;20163;-73
2023/08/20 11:36:41;;;;;;;5.47;1.33;;;24.70;99.90;;;;;;5072179;28;20044;-72
2023/08/20 11:39:07;;;;;;;3.25;0.90;;;24.60;99.90;;;;;;5071831;28;20074;-72
2023/08/20 11:41:36;;;;;;;5.43;1.10;;;24.80;99.90;;;;;;5072797;28;20048;-72
2023/08/20 11:44:03;;;;;;;5.32;1.10;;;24.80;99.90;;;;;;5073450;28;20045;-72
2023/08/20 11:46:29;;;;;;;6.47;1.30;;;24.80;99.90;;;;;;5073150;28;20040;-72
2023/08/20 11:49:03;;;;;;;3.90;1.38;;;24.80;99.90;;;;;;5074064;28;20036;-72
2023/08/20 11:51:28;;;;;;;3.45;0.73;;;24.70;99.90;;;;;;5063677;28;20394;-72
2023/08/20 11:53:55;;;;;;;3.83;1.05;;;24.70;99.90;;;;;;5069233;28;20037;-72
2023/08/20 11:56:20;;;;;;;3.97;0.90;;;24.70;99.90;;;;;;5064598;28;20598;-72
2023/08/20 11:58:52;;;;;;;3.20;1.08;;;24.70;99.90;;;;;;5062206;28;20073;-72
2023/08/20 12:01:20;;;;;;;5.43;1.02;;;24.70;99.90;;;;;;5063691;28;20040;-72
2023/08/20 12:03:46;;;;;;;2.72;0.82;;;24.80;99.90;;;;;;5050632;28;20078;-72
2023/08/20 12:06:24;;;;;;;3.53;1.13;;;24.90;99.90;;;;;;5063657;28;20075;-72
2023/08/20 12:08:50;;;;;;;5.35;1.42;;;24.90;99.90;;;;;;5062141;28;20518;-72
2023/08/20 12:11:15;;;;;;;2.40;0.93;;;24.80;99.90;;;;;;5067383;28;20068;-72
2023/08/20 12:13:41;;;;;;;4.35;0.93;;;24.80;99.90;;;;;;5059676;28;20036;-72
2023/08/20 12:16:07;;;;;;;5.70;1.00;;;24.90;99.90;;;;;;5063168;28;20055;-72
2023/08/20 12:18:32;;;;;;;5.35;1.02;;;24.90;99.90;;;;;;5056381;28;20075;-72
2023/08/20 12:20:58;;;;;;;2.78;1.00;;;24.70;99.90;;;;;;5060967;28;20029;-73
2023/08/20 12:23:23;;;;;;;11.20;1.17;;;24.70;99.90;;;;;;5060566;28;20044;-71
2023/08/20 12:25:52;;;;;;;3.63;1.27;;;24.70;99.90;;;;;;5059975;28;20112;-72
2023/08/20 12:28:18;;;;;;;2.65;0.73;;;24.70;99.90;;;;;;5061810;28;20048;-71
2023/08/20 12:30:45;;;;;;;4.47;0.90;;;24.80;99.90;;;;;;5069884;28;20411;-72
2023/08/20 12:33:11;;;;;;;5.00;0.95;;;24.80;99.90;;;;;;5067931;28;20055;-71
2023/08/20 12:35:36;;;;;;;6.00;0.93;;;24.80;99.90;;;;;;5072848;28;20036;-71
2023/08/20 12:38:02;;;;;;;4.63;1.02;;;24.90;99.90;;;;;;5068349;28;20048;-72
2023/08/20 12:40:28;;;;;;;4.82;1.67;;;24.80;99.90;;;;;;5066039;28;20044;-71
2023/08/20 12:42:54;;;;;;;4.40;1.08;;;24.80;99.90;;;;;;5065959;28;20126;-72